Refugio, Texas
Current Conditions -  °F | °C
As of 3:07 AM on Sunday 21 Dec 2014 (Local Time) from KRKP Reporting Station
Broken Clouds Broken Clouds  
Wind Chill: 53°   Ceiling: 9000
Heat Index: 53°   Visibility: 7mi
Dew Point: 51°   Wind: 10mph
Humidity: 93%   Direction: 40°NE
Pressure: 30.11"   Gusts: NA
Location:  28.31°N, 97.28°W
Report Text: KRKP 210907Z AUTO 04009KT 7SM FEW005 BKN090 12/11 A3011 RMK AO2 T01170106
Loading
Personal Weather Stations






























Interactive Weather Map New forecast layout! Learn more

10-Day Weather Forecast

Advertisements
Track Severe Weather on mobile